Big Bear Station Historical Data
Daily Summary for July 10, 2017 Units:  English    Metric   Both
« Previous Day
Next Day »
Daily Weekly Monthly Yearly Custom
  High: Low: Average:
Temperature: 82.9 °F 53.6 °F 66.8 °F
Dew Point: 57.2 °F 49.1 °F 52.1 °F
Humidity: 88 % 35 % 62 %
Wind Speed: 7.3 mph 0.0 mph 1.9 mph
Wind Gust: -999.0 mph - -
Wind:- - West
Pressure: 30.29 in 30.23 in -
Precipitation: 0.00 in    
Historical Graphs
 
 
Tabular Data for July 10, 2017
Time Temperature Dew Point Pressure Wind Wind Speed Wind Gust Humidity Rainfall Rate (Hourly)
00:02 58.1 °F 50.6 °F 30.29 in Calm   -999.0 mph 76 % 0 in
00:17 57.9 °F 50.4 °F 30.29 in Calm   -999.0 mph 76 % 0 in
00:32 57.4 °F 49.9 °F 30.28 in Calm   -999.0 mph 76 % 0 in
00:47 57.2 °F 50.1 °F 30.28 in Calm   -999.0 mph 77 % 0 in
01:03 56.8 °F 49.7 °F 30.28 in Calm   -999.0 mph 77 % 0 in
01:18 56.5 °F 49.7 °F 30.28 in Calm   -999.0 mph 78 % 0 in
01:33 56.3 °F 49.9 °F 30.28 in Calm   -999.0 mph 79 % 0 in
01:48 56.1 °F 49.7 °F 30.28 in Calm   -999.0 mph 79 % 0 in
02:03 56.1 °F 49.7 °F 30.28 in Calm   -999.0 mph 79 % 0 in
02:19 55.8 °F 49.7 °F 30.27 in Calm   -999.0 mph 80 % 0 in
02:34 55.4 °F 49.7 °F 30.27 in Calm   -999.0 mph 81 % 0 in
02:49 55.4 °F 49.7 °F 30.27 in Calm   -999.0 mph 81 % 0 in
03:04 55.2 °F 49.8 °F 30.27 in Calm   -999.0 mph 82 % 0 in
03:19 55.0 °F 49.6 °F 30.27 in Calm   -999.0 mph 82 % 0 in
03:35 54.7 °F 49.6 °F 30.27 in Calm   -999.0 mph 83 % 0 in
03:50 54.7 °F 49.6 °F 30.27 in Calm   -999.0 mph 83 % 0 in
04:05 54.7 °F 49.6 °F 30.27 in Calm   -999.0 mph 83 % 0 in
04:20 54.3 °F 49.2 °F 30.27 in Calm   -999.0 mph 83 % 0 in
04:36 54.1 °F 49.4 °F 30.27 in Calm   -999.0 mph 84 % 0 in
04:51 54.0 °F 49.3 °F 30.27 in Calm   -999.0 mph 84 % 0 in
05:06 53.8 °F 49.1 °F 30.27 in Calm   -999.0 mph 84 % 0 in
05:21 53.8 °F 49.1 °F 30.27 in Calm   -999.0 mph 84 % 0 in
05:36 53.8 °F 49.1 °F 30.27 in Calm   -999.0 mph 84 % 0 in
05:52 53.6 °F 49.2 °F 30.27 in Calm   -999.0 mph 85 % 0 in
06:07 53.8 °F 49.4 °F 30.27 in Calm   -999.0 mph 85 % 0 in
06:22 53.6 °F 49.2 °F 30.27 in Calm   -999.0 mph 85 % 0 in
06:37 53.8 °F 49.4 °F 30.27 in Calm   -999.0 mph 85 % 0 in
06:52 54.3 °F 50.2 °F 30.27 in Calm   -999.0 mph 86 % 0 in
07:08 55.0 °F 51.5 °F 30.27 in Calm   -999.0 mph 88 % 0 in
07:23 56.1 °F 52.0 °F 30.28 in Calm   -999.0 mph 86 % 0 in
07:38 56.8 °F 53.0 °F 30.27 in Calm   -999.0 mph 87 % 0 in
07:53 58.1 °F 53.3 °F 30.28 in Calm   -999.0 mph 84 % 0 in
08:08 59.7 °F 54.2 °F 30.27 in Calm   -999.0 mph 82 % 0 in
08:24 61.3 °F 55.1 °F 30.27 in Calm   -999.0 mph 80 % 0 in
08:39 63.1 °F 54.7 °F 30.27 in Calm   -999.0 mph 74 % 0 in
08:54 65.1 °F 54.3 °F 30.27 in Calm   -999.0 mph 68 % 0 in
09:09 67.5 °F 53.1 °F 30.28 in Calm   -999.0 mph 60 % 0 in
09:24 70.2 °F 54.7 °F 30.27 in NW 1.7 mph -999.0 mph 58 % 0 in
09:40 72.1 °F 54.0 °F 30.27 in WNW 2.2 mph -999.0 mph 53 % 0 in
09:55 72.5 °F 53.9 °F 30.28 in WNW 3.2 mph -999.0 mph 52 % 0 in
10:11 72.5 °F 54.4 °F 30.28 in NW 5.8 mph -999.0 mph 53 % 0 in
10:27 73.4 °F 54.2 °F 30.28 in NNW 4.7 mph -999.0 mph 51 % 0 in
10:42 74.1 °F 54.3 °F 30.28 in WNW 6.3 mph -999.0 mph 50 % 0 in
10:58 74.8 °F 54.4 °F 30.28 in NNW 4.2 mph -999.0 mph 49 % 0 in
11:13 76.1 °F 54.4 °F 30.28 in West 4.2 mph -999.0 mph 47 % 0 in
11:28 77.4 °F 53.8 °F 30.28 in West 3.2 mph -999.0 mph 44 % 0 in
11:43 76.3 °F 53.4 °F 30.29 in NW 4.7 mph -999.0 mph 45 % 0 in
11:59 75.0 °F 53.4 °F 30.29 in NW 3.2 mph -999.0 mph 47 % 0 in
12:14 74.1 °F 52.6 °F 30.29 in NW 4.7 mph -999.0 mph 47 % 0 in
12:29 76.1 °F 53.8 °F 30.29 in WNW 1.7 mph -999.0 mph 46 % 0 in
12:45 73.9 °F 53.0 °F 30.29 in NNW 4.7 mph -999.0 mph 48 % 0 in
13:00 72.3 °F 57.2 °F 30.29 in NW 2.7 mph -999.0 mph 59 % 0 in
13:15 76.3 °F 56.3 °F 30.29 in WNW 4.7 mph -999.0 mph 50 % 0 in
13:30 80.1 °F 56.2 °F 30.29 in NNW 4.7 mph -999.0 mph 44 % 0 in
13:45 80.4 °F 56.5 °F 30.28 in NW 4.2 mph -999.0 mph 44 % 0 in
14:01 81.5 °F 55.5 °F 30.28 in NNW 4.2 mph -999.0 mph 41 % 0 in
14:16 80.6 °F 54.1 °F 30.27 in NW 4.7 mph -999.0 mph 40 % 0 in
14:31 79.9 °F 52.7 °F 30.27 in SSE 6.3 mph -999.0 mph 39 % 0 in
14:46 82.6 °F 54.4 °F 30.27 in ENE 3.7 mph -999.0 mph 38 % 0 in
15:01 82.2 °F 54.8 °F 30.27 in NNW 3.7 mph -999.0 mph 39 % 0 in
15:17 81.9 °F 53.1 °F 30.27 in NNW 4.2 mph -999.0 mph 37 % 0 in
15:32 82.0 °F 53.9 °F 30.26 in NNW 7.3 mph -999.0 mph 38 % 0 in
15:47 81.1 °F 52.4 °F 30.25 in West 2.2 mph -999.0 mph 37 % 0 in
16:03 80.1 °F 52.2 °F 30.25 in NNW 2.7 mph -999.0 mph 38 % 0 in
16:18 79.2 °F 52.1 °F 30.25 in NNW 3.7 mph -999.0 mph 39 % 0 in
16:34 79.5 °F 51.0 °F 30.24 in West 3.2 mph -999.0 mph 37 % 0 in
16:50 81.5 °F 52.7 °F 30.24 in WNW 7.3 mph -999.0 mph 37 % 0 in
17:05 82.9 °F 52.5 °F 30.24 in SW 4.2 mph -999.0 mph 35 % 0 in
17:20 81.0 °F 52.3 °F 30.24 in NNW 4.7 mph -999.0 mph 37 % 0 in
17:35 81.0 °F 51.5 °F 30.23 in WNW 3.7 mph -999.0 mph 36 % 0 in
17:50 81.5 °F 52.0 °F 30.23 in WSW 5.3 mph -999.0 mph 36 % 0 in
18:06 81.0 °F 52.3 °F 30.23 in SSE 1.7 mph -999.0 mph 37 % 0 in
18:21 81.0 °F 53.0 °F 30.24 in NNW 3.2 mph -999.0 mph 38 % 0 in
18:36 78.6 °F 52.9 °F 30.24 in WNW 6.3 mph -999.0 mph 41 % 0 in
18:51 76.8 °F 53.2 °F 30.24 in SSW 2.7 mph -999.0 mph 44 % 0 in
19:06 76.5 °F 53.0 °F 30.24 in WNW 3.2 mph -999.0 mph 44 % 0 in
19:22 73.6 °F 52.7 °F 30.24 in WNW 3.7 mph -999.0 mph 48 % 0 in
19:37 69.6 °F 52.2 °F 30.24 in North 3.7 mph -999.0 mph 54 % 0 in
19:52 66.6 °F 51.8 °F 30.24 in SSW 2.2 mph -999.0 mph 59 % 0 in
20:08 65.8 °F 51.5 °F 30.24 in WNW 2.2 mph -999.0 mph 60 % 0 in
20:23 65.1 °F 51.8 °F 30.24 in SE 3.7 mph -999.0 mph 62 % 0 in
20:38 64.8 °F 51.9 °F 30.24 in SE 1.1 mph -999.0 mph 63 % 0 in
20:53 64.2 °F 51.8 °F 30.25 in ESE 1.1 mph -999.0 mph 64 % 0 in
21:09 63.9 °F 52.3 °F 30.25 in NNE 1.7 mph -999.0 mph 66 % 0 in
21:24 63.5 °F 51.9 °F 30.25 in Calm   -999.0 mph 66 % 0 in
21:39 62.8 °F 51.7 °F 30.26 in Calm   -999.0 mph 67 % 0 in
21:54 62.2 °F 51.9 °F 30.26 in Calm   -999.0 mph 69 % 0 in
22:09 61.9 °F 51.6 °F 30.26 in Calm   -999.0 mph 69 % 0 in
22:25 61.5 °F 52.0 °F 30.26 in Calm   -999.0 mph 71 % 0 in
22:40 61.7 °F 52.2 °F 30.27 in Calm   -999.0 mph 71 % 0 in
22:55 61.3 °F 51.4 °F 30.27 in Calm   -999.0 mph 70 % 0 in
23:10 61.5 °F 51.2 °F 30.27 in Calm   -999.0 mph 69 % 0 in
23:26 61.0 °F 50.8 °F 30.27 in Calm   -999.0 mph 69 % 0 in
23:41 61.2 °F 50.9 °F 30.26 in East 1.7 mph -999.0 mph 69 % 0 in
23:56 61.2 °F 50.9 °F 30.26 in Calm   -999.0 mph 69 % 0 in
Big Bear CA Weather
Compliments of Weather Underground - 1.5 mb